createdAt,value
2023-04-12T04:40:27.806Z,99856.97
2023-04-12T04:43:30.751Z,99839.69
2023-04-12T04:46:34.249Z,99842.38
2023-04-12T04:49:37.745Z,99833.13
2023-04-12T04:52:41.001Z,99855.59
2023-04-12T04:55:44.857Z,99866.88
2023-04-12T04:58:48.382Z,99886.44
2023-04-12T05:01:52.187Z,99921.66
2023-04-12T05:04:56.394Z,99960.47
2023-04-12T05:07:59.010Z,99987.47
2023-04-12T05:11:03.045Z,100011.91
2023-04-12T05:14:05.516Z,100025.25
2023-04-12T05:17:08.000Z,100020.56
2023-04-12T05:20:11.865Z,100009.91
2023-04-12T05:23:14.562Z,100029.56
2023-04-12T05:26:18.361Z,100021.22
2023-04-12T05:29:20.945Z,100028.16
2023-04-12T05:32:23.557Z,100017.25
2023-04-12T05:35:26.104Z,100014.31
2023-04-12T05:38:28.676Z,100010.41
2023-04-12T05:41:32.511Z,100013.28
2023-04-12T05:44:36.515Z,100008.91
2023-04-12T05:47:39.011Z,100009.50
2023-04-12T05:50:41.562Z,100008.06
2023-04-12T05:53:44.149Z,99993.88
2023-04-12T05:56:48.049Z,100003.88
2023-04-12T05:59:50.525Z,100004.25
2023-04-12T06:02:53.240Z,99996.16
2023-04-12T06:05:55.957Z,100005.34
2023-04-12T06:09:00.285Z,99992.91
2023-04-12T06:12:04.191Z,99989.09
2023-04-12T06:15:07.925Z,99976.25
2023-04-12T06:18:10.514Z,99974.03
2023-04-12T06:21:13.693Z,99968.63
2023-04-12T06:24:16.293Z,99970.06
2023-04-12T06:27:22.650Z,99964.00
2023-04-12T06:30:25.111Z,99964.00
2023-04-12T06:33:27.843Z,99956.00
2023-04-12T06:36:30.314Z,99961.59
2023-04-12T06:39:32.859Z,99956.31
2023-04-12T06:42:36.907Z,99944.09
2023-04-12T06:45:39.379Z,99952.13
2023-04-12T06:48:42.132Z,99941.53
2023-04-12T06:51:45.095Z,99940.06
2023-04-12T06:54:47.597Z,99944.75
2023-04-12T06:57:52.183Z,99935.09
2023-04-12T07:00:54.717Z,99939.84
2023-04-12T07:03:57.417Z,99944.25
2023-04-12T07:07:00.305Z,99930.53
2023-04-12T07:10:04.353Z,99930.19
2023-04-12T07:13:08.298Z,100194.50
2023-04-12T07:16:11.182Z,99943.81
2023-04-12T07:19:13.725Z,99943.19
2023-04-12T07:22:16.332Z,99934.59
2023-04-12T07:25:19.032Z,99938.25
2023-04-12T07:28:22.853Z,99926.28
2023-04-12T07:31:25.357Z,99918.88
2023-04-12T07:34:28.041Z,99914.13
2023-04-12T07:37:30.811Z,99912.16
2023-04-12T07:40:33.296Z,99908.72
2023-04-12T07:43:37.132Z,99905.47
2023-04-12T07:46:40.131Z,99907.25
2023-04-12T07:49:42.592Z,99898.16
2023-04-12T07:52:45.151Z,99898.38
2023-04-12T07:55:47.817Z,99903.53
2023-04-12T07:58:51.668Z,99886.25
2023-04-12T08:01:54.172Z,99889.41
2023-04-12T08:04:56.704Z,99879.56
2023-04-12T08:07:59.202Z,99877.75
2023-04-12T08:11:02.791Z,99880.03
2023-04-12T08:14:06.663Z,99877.06
2023-04-12T08:17:09.222Z,99877.94
2023-04-12T08:20:13.014Z,99867.06
2023-04-12T08:23:15.875Z,99862.78
2023-04-12T08:26:18.368Z,99859.69
2023-04-12T08:29:22.147Z,99866.69
2023-04-12T08:32:24.737Z,99849.91
2023-04-12T08:35:27.498Z,99836.84
2023-04-12T08:38:44.137Z,99834.38
2023-04-12T08:41:48.717Z,99827.88
2023-04-12T08:44:53.712Z,99824.88
2023-04-12T08:47:56.531Z,99812.66
2023-04-12T08:50:59.143Z,99818.56
2023-04-12T08:54:01.685Z,99803.91
2023-04-12T08:57:06.520Z,99809.53
2023-04-12T09:00:12.941Z,99802.50
2023-04-12T09:03:15.603Z,99801.94
2023-04-12T09:06:18.349Z,99785.50
2023-04-12T09:09:20.827Z,99786.81
2023-04-12T09:12:24.722Z,99774.75
2023-04-12T09:15:28.625Z,99769.06
2023-04-12T09:18:31.230Z,99756.16
2023-04-12T09:21:35.059Z,99750.47
2023-04-12T09:24:47.574Z,99749.13
2023-04-12T09:27:51.400Z,99747.59
2023-04-12T09:30:56.211Z,99754.16
2023-04-12T09:34:08.757Z,99756.88
2023-04-12T09:37:16.125Z,99738.94
2023-04-12T09:40:24.965Z,99754.78
2023-04-12T09:43:40.198Z,99742.63
2023-04-12T09:46:53.068Z,99726.06
2023-04-12T09:49:55.820Z,99726.16
2023-04-12T09:52:59.367Z,99719.97
2023-04-12T09:56:03.997Z,99707.53
2023-04-12T09:59:08.033Z,99698.78
2023-04-12T10:02:17.438Z,99691.09
2023-04-12T10:05:21.932Z,99695.72
2023-04-12T10:08:25.283Z,99696.78
2023-04-12T10:11:29.381Z,99672.28
2023-04-12T10:14:32.739Z,99671.53
2023-04-12T10:17:38.058Z,99669.84
2023-04-12T10:20:41.765Z,99672.25
2023-04-12T10:23:45.488Z,99656.78
2023-04-12T10:26:50.374Z,99652.72
2023-04-12T10:30:33.570Z,99650.69
2023-04-12T10:34:29.679Z,99635.44
2023-04-12T10:37:58.744Z,99616.72
2023-04-12T10:41:15.987Z,99623.78
2023-04-12T10:44:26.622Z,99620.91
2023-04-12T10:48:03.809Z,99619.22
2023-04-12T10:51:23.083Z,99611.88
2023-04-12T10:54:35.409Z,99607.75
2023-04-12T10:57:45.068Z,99594.34
2023-04-12T11:01:11.117Z,99583.66
2023-04-12T11:04:17.036Z,99589.00
2023-04-12T11:07:21.583Z,99574.56
2023-04-12T11:10:25.896Z,99570.63
2023-04-12T11:13:29.090Z,99570.47
2023-04-12T11:16:31.597Z,99560.69
2023-04-12T11:19:35.805Z,99550.22
2023-04-12T11:22:40.591Z,99550.00
2023-04-12T11:25:43.073Z,99551.88
2023-04-12T11:28:45.617Z,99538.72
2023-04-12T11:31:48.109Z,99542.28
2023-04-12T11:34:51.089Z,99529.09
2023-04-12T11:37:57.068Z,99519.59
2023-04-12T11:40:59.676Z,99513.84
2023-04-12T11:44:02.211Z,99511.41
2023-04-12T11:47:05.207Z,99515.69
2023-04-12T11:50:10.676Z,99511.13
2023-04-12T11:53:15.940Z,99508.66
2023-04-12T11:56:18.427Z,99507.34
2023-04-12T11:59:20.924Z,99493.94
2023-04-12T12:02:24.636Z,99486.44
2023-04-12T12:05:28.372Z,99486.84
2023-04-12T12:08:32.365Z,99486.38
2023-04-12T12:11:34.901Z,99473.72
2023-04-12T12:14:37.489Z,99460.56
2023-04-12T12:17:40.039Z,99456.91
2023-04-12T12:20:43.422Z,99452.25
2023-04-12T12:23:48.777Z,99437.00
2023-04-12T12:26:51.608Z,99422.97
2023-04-12T12:29:56.410Z,99435.50
2023-04-12T12:32:58.915Z,99443.47
2023-04-12T12:36:01.520Z,99413.00
2023-04-12T12:39:07.862Z,99432.13
2023-04-12T12:42:12.970Z,99426.66
2023-04-12T12:45:16.032Z,99428.63
2023-04-12T12:48:21.032Z,99415.28
2023-04-12T12:51:23.575Z,99398.56
2023-04-12T12:54:40.170Z,99401.16
2023-04-12T12:57:45.241Z,99386.25
2023-04-12T13:00:51.017Z,99388.63
2023-04-12T13:03:53.926Z,99387.09
2023-04-12T13:06:56.575Z,99380.56
2023-04-12T13:10:00.796Z,99383.88
2023-04-12T13:13:03.672Z,99369.41
2023-04-12T13:16:07.021Z,99360.34
2023-04-12T13:19:09.500Z,99354.31
2023-04-12T13:22:11.970Z,99352.13
2023-04-12T13:25:15.856Z,99354.88
2023-04-12T13:28:18.331Z,99343.47
2023-04-12T13:31:21.092Z,99344.00
2023-04-12T13:34:23.725Z,99334.88
2023-04-12T13:37:26.222Z,99336.16
2023-04-12T13:40:30.326Z,99329.19
2023-04-12T13:43:32.812Z,99331.31
2023-04-12T13:46:35.555Z,99327.25
2023-04-12T13:49:38.739Z,99332.03
2023-04-12T13:52:41.217Z,99316.44
2023-04-12T13:55:46.356Z,99297.06
2023-04-12T13:58:49.212Z,99292.94
2023-04-12T14:01:51.912Z,99283.97
2023-04-12T14:04:55.405Z,99266.91
2023-04-12T14:07:58.053Z,99266.09
2023-04-12T14:11:03.212Z,99256.09
2023-04-12T14:14:05.805Z,99257.47
2023-04-12T14:17:08.370Z,99252.97
2023-04-12T14:20:12.478Z,99250.50
2023-04-12T14:23:15.118Z,99245.72
2023-04-12T14:26:19.011Z,99242.53
2023-04-12T14:29:21.566Z,99239.59
2023-04-12T14:32:24.099Z,99227.75
2023-04-12T14:35:27.066Z,99223.38
2023-04-12T14:38:29.748Z,99222.63
2023-04-12T14:41:34.290Z,99210.41
2023-04-12T14:44:36.780Z,99218.00
2023-04-12T14:47:39.315Z,99216.59
2023-04-12T14:50:42.805Z,99210.13
2023-04-12T14:53:45.372Z,99205.56
2023-04-12T14:56:53.858Z,99195.50
2023-04-12T14:59:58.562Z,99196.44
2023-04-12T15:03:01.868Z,99196.84
2023-04-12T15:06:05.061Z,99201.69
2023-04-12T15:09:08.191Z,99199.03
2023-04-12T15:12:12.139Z,99193.88
2023-04-12T15:15:15.812Z,99193.66
2023-04-12T15:18:18.513Z,99183.44
2023-04-12T15:21:21.092Z,99180.91
2023-04-12T15:24:24.620Z,99171.28
2023-04-12T15:27:30.634Z,99179.50
2023-04-12T15:30:33.089Z,99172.78
2023-04-12T15:35:31.902Z,99173.34
2023-04-12T15:38:43.378Z,99177.81
2023-04-12T15:41:46.475Z,99168.69
2023-04-12T15:44:49.193Z,99164.69
2023-04-12T15:47:51.839Z,99173.47
2023-04-12T15:50:56.571Z,99174.13
2023-04-12T15:53:59.302Z,99173.03
2023-04-12T15:57:09.383Z,99169.53
2023-04-12T16:00:20.919Z,99167.41
2023-04-12T16:03:24.792Z,99163.72
2023-04-12T16:06:31.255Z,99163.63
2023-04-12T16:09:34.797Z,99179.44
2023-04-12T16:12:37.302Z,99166.56
2023-04-12T16:15:39.794Z,99171.84
2023-04-12T16:18:43.057Z,99158.84
2023-04-12T16:21:47.230Z,99157.44
2023-04-12T16:24:49.706Z,99148.53
2023-04-12T16:27:52.435Z,99164.50
2023-04-12T16:30:55.149Z,99153.63
2023-04-12T16:33:57.674Z,99157.97
2023-04-12T16:37:01.660Z,99143.88
2023-04-12T16:40:06.750Z,99137.59
2023-04-12T16:43:10.322Z,99142.72
2023-04-12T16:46:13.022Z,99137.66
2023-04-12T16:49:17.582Z,99143.22
2023-04-12T16:52:23.229Z,99141.72
2023-04-12T16:55:25.802Z,99138.84
2023-04-12T16:58:28.780Z,99134.75
2023-04-12T17:01:32.178Z,99126.34
2023-04-12T17:07:35.151Z,99124.44
2023-04-12T17:10:37.871Z,99118.97
2023-04-12T17:13:40.706Z,99120.19
2023-04-12T17:16:43.421Z,99112.63
2023-04-12T17:19:45.887Z,99124.94
2023-04-12T17:22:50.970Z,99116.28
2023-04-12T17:25:53.430Z,99106.91
2023-04-12T17:30:57.073Z,99097.44
2023-04-12T17:34:01.068Z,99101.91
2023-04-12T17:40:25.753Z,99115.28
2023-04-12T17:43:28.312Z,99132.13
2023-04-12T17:46:30.905Z,99159.69
2023-04-12T17:49:33.414Z,99146.47
2023-04-12T17:52:36.097Z,99148.03
2023-04-12T17:55:39.949Z,99139.00
2023-04-12T17:58:43.988Z,99140.22
2023-04-12T18:01:46.967Z,99139.13
2023-04-12T18:04:49.669Z,99132.16
2023-04-12T18:07:52.134Z,99123.63
2023-04-12T18:10:55.992Z,99127.22
2023-04-12T18:13:58.713Z,99117.13
2023-04-12T18:17:01.393Z,99117.97
2023-04-12T18:20:06.017Z,99131.34
2023-04-12T18:23:08.563Z,99123.25
2023-04-12T18:26:12.427Z,99126.66
2023-04-12T18:29:17.470Z,99123.63
2023-04-12T18:32:20.000Z,99125.22
2023-04-12T18:35:22.554Z,99130.84
2023-04-12T18:38:25.131Z,99134.69
2023-04-12T18:41:29.037Z,99137.81
2023-04-12T18:44:31.676Z,99147.69
2023-04-12T18:47:34.239Z,99143.50
2023-04-12T18:50:39.341Z,99140.84
2023-04-12T18:53:42.083Z,99138.41
2023-04-12T18:56:46.091Z,99129.78
2023-04-12T18:59:48.955Z,99125.81
2023-04-12T19:02:51.577Z,99121.84
2023-04-12T19:05:54.837Z,99123.84
2023-04-12T19:08:57.306Z,99135.63
2023-04-12T19:12:01.237Z,99130.06
2023-04-12T19:15:03.992Z,99128.63
2023-04-12T19:18:06.632Z,99118.59
2023-04-12T19:21:09.187Z,99112.25
2023-04-12T19:24:11.688Z,99106.94
2023-04-12T19:27:15.553Z,99099.31
2023-04-12T19:30:18.380Z,99097.66
2023-04-12T19:33:21.108Z,99102.06
2023-04-12T19:36:24.381Z,99098.41
2023-04-12T19:39:27.044Z,99090.09
2023-04-12T19:42:31.051Z,99084.50
2023-04-12T19:45:33.594Z,99079.16
2023-04-12T19:48:36.700Z,99070.41
2023-04-12T19:51:39.774Z,99061.84
2023-04-12T19:54:42.233Z,99050.13
2023-04-12T19:57:46.068Z,99039.34
2023-04-12T20:00:51.822Z,99037.66
2023-04-12T20:03:54.595Z,99028.56
2023-04-12T20:06:57.105Z,99033.47
2023-04-12T20:10:00.482Z,99038.00
2023-04-12T20:13:06.842Z,99042.31
2023-04-12T20:16:10.056Z,99048.59
2023-04-12T20:19:13.226Z,99038.34
2023-04-12T20:22:16.219Z,99045.38
2023-04-12T20:28:01.472Z,99042.19
2023-04-12T20:31:04.569Z,99036.34
2023-04-12T20:34:07.238Z,99040.66
2023-04-12T20:37:09.738Z,99032.66
2023-04-12T20:40:13.188Z,99029.13
2023-04-12T20:43:16.985Z,99029.25
2023-04-12T20:46:25.527Z,99014.16
2023-04-12T20:49:29.920Z,98996.91
2023-04-12T20:52:32.535Z,98988.75
2023-04-12T20:55:35.216Z,98988.88
2023-04-12T20:58:38.999Z,98994.16
2023-04-12T21:01:45.393Z,98997.94
